Latest Weather Observations for Roebourne Airport

IDW60801

Issued at 8:23 am WST Thursday 21 June 2018 (issued every 10 minutes, with the page automatically refreshed every 10 minutes)

About weather observations | Map of weather stations | Latest weather observations for WA | Other Formats
Station Details ID: 004090 Name: ROEBOURNE AERO Lat: -20.76 Lon: 117.16 Height: 10.7 m
Data from the previous 72 hours. | See also: Recent months at Roebourne Airport
Date/Time
WST
Temp
°C
App
Temp
°C
Dew
Point
°C
Rel
Hum
%
Delta-T
°C
Wind Press
QNH
hPa
Press
MSL
hPa
Rain since
9am
mm
Dir  Spd
km/h
Gust
km/h
Spd
kts
Gust
kts
21/08:00am 19.4 13.2 1.9 31 8.0 SE 24 30 13 16 1023.2 1023.1 0.0
21/07:30am 18.4 12.9 1.9 33 7.5 SE 20 28 11 15 1023.0 1022.9 0.0
21/07:00am 17.5 11.6 1.9 35 7.0 SE 22 28 12 15 1022.7 1022.6 0.0
21/06:30am 17.1 11.7 2.3 37 6.7 SE 20 28 11 15 1022.5 1022.4 0.0
21/06:00am 17.6 11.9 2.8 37 6.8 SE 22 26 12 14 1022.2 1022.1 0.0
21/05:30am 17.6 12.0 3.5 39 6.6 SE 22 30 12 16 1022.1 1022.0 0.0
21/05:00am 17.2 12.4 4.9 44 5.8 SE 19 24 10 13 1022.1 1022.0 0.0
21/04:30am 16.9 12.2 5.2 46 5.6 ESE 19 22 10 12 1022.1 1022.0 0.0
21/04:00am 17.8 13.1 5.1 43 6.1 ESE 19 26 10 14 1022.1 1022.0 0.0
21/03:30am 18.8 13.9 5.3 41 6.6 SE 20 24 11 13 1022.0 1021.9 0.0
21/03:00am 18.9 14.4 6.1 43 6.3 SE 19 24 10 13 1021.8 1021.7 0.0
21/02:30am 19.4 14.7 6.2 42 6.6 SE 20 26 11 14 1021.8 1021.7 0.0
21/02:00am 19.9 15.3 6.6 42 6.7 SE 20 26 11 14 1021.7 1021.6 0.0
21/01:30am 19.6 15.4 7.4 45 6.2 SE 19 24 10 13 1021.9 1021.8 0.0
21/01:00am 19.1 15.4 7.8 48 5.8 SE 17 22 9 12 1021.9 1021.8 0.0
21/12:30am 19.8 16.1 7.9 46 6.1 SE 17 20 9 11 1021.9 1021.8 0.0
21/12:00am 19.0 16.2 8.6 51 5.4 SE 13 19 7 10 1021.8 1021.7 0.0
 
Date/Time
WST
Temp
°C
App
Temp
°C
Dew
Point
°C
Rel
Hum
%
Delta-T
°C
Wind Press
QNH
hPa
Press
MSL
hPa
Rain since
9am
mm
Dir  Spd
km/h
Gust
km/h
Spd
kts
Gust
kts
20/11:30pm 19.4 16.2 8.4 49 5.7 ESE 15 17 8 9 1021.8 1021.7 0.0
20/11:00pm 20.4 16.8 8.4 46 6.2 ESE 17 20 9 11 1021.7 1021.6 0.0
20/10:30pm 20.4 16.8 8.4 46 6.3 ESE 17 20 9 11 1021.8 1021.7 0.0
20/10:00pm 21.0 17.4 8.3 44 6.6 ESE 17 20 9 11 1021.8 1021.7 0.0
20/09:30pm 20.7 17.2 8.7 46 6.3 SE 17 20 9 11 1021.9 1021.8 0.0
20/09:00pm 20.0 16.6 9.0 49 5.8 SE 17 17 9 9 1021.8 1021.7 0.0
20/08:30pm 19.3 17.1 9.2 52 5.3 ESE 11 13 6 7 1021.7 1021.6 0.0
20/08:00pm 20.4 18.3 9.9 51 5.6 ENE 11 13 6 7 1021.4 1021.3 0.0
20/07:30pm 21.4 18.7 9.0 45 6.6 E 13 17 7 9 1021.0 1020.9 0.0
20/07:00pm 21.1 19.2 9.0 46 6.4 E 9 11 5 6 1020.8 1020.7 0.0
20/06:30pm 22.7 19.9 8.4 40 7.6 ESE 13 17 7 9 1020.4 1020.3 0.0
20/06:00pm 24.2 20.9 8.2 36 8.5 SE 15 19 8 10 1020.0 1019.9 0.0
20/05:30pm 25.7 22.0 7.8 32 9.5 ESE 17 24 9 13 1019.6 1019.5 0.0
20/05:00pm 26.9 22.6 7.9 30 10.2 ESE 20 30 11 16 1019.3 1019.2 0.0
20/04:30pm 27.5 23.3 8.4 30 10.4 ESE 20 26 11 14 1019.0 1018.9 0.0
20/04:00pm 28.0 23.8 8.3 29 10.7 E 20 26 11 14 1019.0 1018.9 0.0
20/03:30pm 28.0 23.1 8.3 29 10.7 ESE 24 33 13 18 1019.0 1018.9 0.0
20/03:00pm 28.2 23.3 8.5 29 10.7 E 24 35 13 19 1019.1 1019.0 0.0
20/02:30pm 28.0 22.4 8.8 30 10.5 E 28 39 15 21 1019.2 1019.1 0.0
20/02:00pm 27.7 22.2 9.0 31 10.3 E 28 43 15 23 1019.4 1019.3 0.0
20/01:30pm 27.1 21.6 9.0 32 9.9 ESE 28 39 15 21 1019.8 1019.7 0.0
20/01:00pm 27.6 21.7 9.0 31 10.2 ESE 30 44 16 24 1020.0 1019.9 0.0
20/12:30pm 27.3 20.9 8.7 31 10.2 E 32 41 17 22 1020.5 1020.4 0.0
20/12:00pm 26.9 20.3 8.4 31 10.0 E 33 43 18 23 1020.9 1020.8 0.0
20/11:30am 26.4 19.6 7.9 31 9.9 E 33 46 18 25 1021.2 1021.1 0.0
20/11:00am 25.7 19.5 7.8 32 9.5 ESE 30 39 16 21 1021.7 1021.6 0.0
20/10:30am 25.0 18.5 8.1 34 9.0 ESE 32 43 17 23 1022.2 1022.1 0.0
20/10:00am 24.4 18.5 7.5 34 8.9 ESE 28 35 15 19 1022.5 1022.4 0.0
20/09:30am 23.6 18.1 7.7 36 8.4 ESE 26 32 14 17 1022.8 1022.7 0.0
20/09:00am 22.8 17.4 7.8 38 7.8 ESE 26 35 14 19 1023.0 1022.9 0.0
20/08:30am 22.1 17.4 7.9 40 7.4 SE 22 30 12 16 1022.9 1022.8 0.0
20/08:00am 20.3 17.1 8.3 46 6.2 ESE 15 20 8 11 1022.5 1022.4 0.0
20/07:30am 17.9 15.1 8.5 54 4.8 ESE 13 15 7 8 1022.2 1022.1 0.0
20/07:00am 17.5 14.2 8.1 54 4.8 ESE 15 17 8 9 1021.9 1021.8 0.0
20/06:30am 18.7 15.2 7.2 47 5.8 ESE 15 17 8 9 1021.7 1021.6 0.0
20/06:00am 17.7 14.3 7.7 52 5.0 ESE 15 17 8 9 1021.2 1021.1 0.0
20/05:30am 16.4 13.6 8.6 60 4.0 E 13 15 7 8 1020.7 1020.6 0.0
20/05:00am 16.7 15.4 9.9 64 3.6 E 7 11 4 6 1020.6 1020.5 0.0
20/04:30am 17.7 14.6 7.4 51 5.2 SE 13 17 7 9 1020.7 1020.6 0.0
20/04:00am 17.2 14.4 8.4 56 4.5 SE 13 15 7 8 1020.8 1020.7 0.0
20/03:30am 18.1 16.1 10.2 60 4.2 SE 11 11 6 6 1020.4 1020.3 0.0
20/03:00am 17.3 16.8 12.6 74 2.6 SSE 7 9 4 5 1020.3 1020.2 0.0
20/02:30am 17.4 16.9 12.7 74 2.6 S 7 9 4 5 1020.2 1020.1 0.0
20/02:00am 18.5 19.2 13.4 72 2.9 S 2 6 1 3 1020.3 1020.2 0.0
20/01:30am 19.2 20.3 13.4 69 3.3 CALM 0 0 0 0 1020.4 1020.3 0.0
20/01:00am 20.4 21.3 12.9 62 4.2 CALM 0 0 0 0 1020.6 1020.5 0.0
20/12:30am 20.8 20.8 13.5 63 4.2 S 6 7 3 4 1020.5 1020.4 0.0
20/12:00am 20.8 20.4 14.2 66 3.8 SE 9 9 5 5 1020.7 1020.6 0.0
 
Date/Time
WST
Temp
°C
App
Temp
°C
Dew
Point
°C
Rel
Hum
%
Delta-T
°C
Wind Press
QNH
hPa
Press
MSL
hPa
Rain since
9am
mm
Dir  Spd
km/h
Gust
km/h
Spd
kts
Gust
kts
19/11:30pm 20.8 20.2 14.5 67 3.7 SSE 11 11 6 6 1020.8 1020.7 0.0
19/11:00pm 20.7 20.9 14.6 68 3.6 SSE 7 11 4 6 1020.9 1020.8 0.0
19/10:30pm 21.3 21.6 14.5 65 4.0 S 6 7 3 4 1020.9 1020.8 0.0
19/10:00pm 21.3 21.7 14.7 66 3.9 S 6 7 3 4 1020.8 1020.7 0.0
19/09:30pm 21.4 21.2 14.8 66 3.9 SE 9 9 5 5 1020.6 1020.5 0.0
19/09:00pm 21.6 21.4 14.7 65 4.0 ESE 9 13 5 7 1020.4 1020.3 0.0
19/08:30pm 21.9 21.7 14.8 64 4.2 ESE 9 9 5 5 1020.3 1020.2 0.0
19/08:00pm 22.1 23.6 14.7 63 4.4 CALM 0 0 0 0 1020.0 1019.9 0.0
19/07:30pm 22.5 24.0 14.6 61 4.7 CALM 0 0 0 0 1019.7 1019.6 0.0
19/07:00pm 22.7 24.1 14.3 59 4.9 CALM 0 0 0 0 1019.6 1019.5 0.0
19/06:30pm 22.9 22.9 13.7 56 5.4 NE 6 7 3 4 1019.3 1019.2 0.0
19/06:00pm 23.2 23.0 13.1 53 5.8 NNE 6 9 3 5 1019.0 1018.9 0.0
19/05:30pm 23.7 22.1 11.7 47 6.8 NNE 11 13 6 7 1018.6 1018.5 0.0
19/05:00pm 24.2 21.7 9.8 40 7.9 NNE 13 17 7 9 1018.3 1018.2 0.0
19/04:30pm 24.6 21.7 9.7 39 8.2 NNE 15 19 8 10 1018.1 1018.0 0.0
19/04:00pm 25.0 21.6 9.3 37 8.5 NNE 17 22 9 12 1017.8 1017.7 0.0
19/03:30pm 25.7 21.6 8.7 34 9.2 NNE 20 24 11 13 1017.7 1017.6 0.0
19/03:00pm 26.4 21.5 6.9 29 10.2 NE 22 28 12 15 1017.8 1017.7 0.0
19/02:30pm 26.8 22.1 6.2 27 10.7 NE 20 26 11 14 1017.8 1017.7 0.0
19/02:00pm 27.5 22.7 7.4 28 10.7 NE 22 30 12 16 1017.8 1017.7 0.0
19/01:30pm 27.7 22.5 5.3 24 11.6 NE 22 32 12 17 1017.9 1017.8 0.0
19/01:00pm 27.6 22.1 4.0 22 11.9 NE 22 32 12 17 1018.1 1018.0 0.0
19/12:30pm 27.5 20.6 2.6 20 12.2 ENE 28 33 15 18 1018.5 1018.4 0.0
19/12:00pm 27.2 21.3 7.6 29 10.5 ENE 28 35 15 19 1018.8 1018.7 0.0
19/11:30am 27.0 22.1 8.4 31 10.1 ENE 24 30 13 16 1019.2 1019.1 0.0
19/11:00am 26.4 21.4 7.9 31 9.9 ENE 24 32 13 17 1019.6 1019.5 0.0
19/10:30am 25.8 19.5 5.9 28 10.3 ENE 28 35 15 19 1019.7 1019.6 0.0
19/10:00am 25.3 19.6 8.3 34 9.1 E 28 35 15 19 1020.0 1019.9 0.0
19/09:30am 25.2 19.6 7.3 32 9.4 ESE 26 33 14 18 1020.1 1020.0 0.0
19/09:00am 24.8 20.4 9.1 37 8.5 ESE 22 30 12 16 1020.2 1020.1 0.0
19/08:30am 23.7 19.8 9.3 40 7.8 ESE 20 26 11 14 1020.1 1020.0 0.0
19/08:00am 22.4 20.8 10.2 46 6.6 ESE 9 17 5 9 1019.8 1019.7 0.0
19/07:30am 18.7 18.8 11.5 63 3.9 SE 2 6 1 3 1019.6 1019.5 0.0
19/07:00am 17.9 16.8 10.0 60 4.2 ESE 6 7 3 4 1019.5 1019.4 0.0
19/06:30am 18.4 17.3 10.5 60 4.2 SSE 7 11 4 6 1019.4 1019.3 0.0
19/06:00am 18.2 16.2 10.3 60 4.2 S 11 13 6 7 1019.2 1019.1 0.0
19/05:30am 18.2 16.2 10.3 60 4.2 SSW 11 13 6 7 1019.0 1018.9 0.0
19/05:00am 18.4 16.7 9.7 57 4.6 S 9 11 5 6 1018.6 1018.5 0.0
19/04:30am 18.1 15.7 10.0 59 4.3 SSW 13 13 7 7 1018.9 1018.8 0.0
19/04:00am 18.8 16.5 10.4 58 4.5 SSW 13 13 7 7 1018.8 1018.7 0.0
19/03:30am 19.1 17.5 11.4 61 4.2 SSW 11 13 6 7 1018.7 1018.6 0.0
19/03:00am 18.8 17.7 11.9 64 3.8 S 9 11 5 6 1018.3 1018.2 0.0
19/02:30am 19.4 18.2 12.7 65 3.8 S 11 13 6 7 1018.2 1018.1 0.0
19/02:00am 19.9 18.9 14.7 72 3.0 SSW 13 15 7 8 1018.4 1018.3 0.0
19/01:30am 19.7 19.8 15.4 76 2.5 SSW 9 9 5 5 1018.4 1018.3 0.0
19/01:00am 19.8 19.8 15.2 75 2.7 SSW 9 11 5 6 1018.5 1018.4 0.0
19/12:30am 19.8 19.8 15.2 75 2.7 S 9 11 5 6 1018.3 1018.2 0.0
19/12:00am 19.9 19.6 15.5 76 2.6 SSW 11 13 6 7 1018.3 1018.2 0.0
 
Date/Time
WST
Temp
°C
App
Temp
°C
Dew
Point
°C
Rel
Hum
%
Delta-T
°C
Wind Press
QNH
hPa
Press
MSL
hPa
Rain since
9am
mm
Dir  Spd
km/h
Gust
km/h
Spd
kts
Gust
kts
18/11:30pm 19.9 21.4 15.7 77 2.5 SSE 2 9 1 5 1018.0 1017.9 0.0
18/11:00pm 19.8 20.1 15.9 78 2.3 SSE 9 11 5 6 1018.2 1018.1 0.0
18/10:30pm 20.1 20.6 15.5 75 2.7 ESE 7 7 4 4 1018.0 1017.9 0.0
18/10:00pm 20.4 19.9 15.8 75 2.7 ESE 13 13 7 7 1017.8 1017.7 0.0
18/09:30pm 20.2 20.3 15.4 74 2.8 ESE 9 11 5 6 1017.9 1017.8 0.0
18/09:00pm 20.5 20.6 15.5 73 3.0 E 9 9 5 5 1017.9 1017.8 0.0
18/08:30pm 20.5 21.1 15.3 72 3.1 ESE 6 7 3 4 1018.0 1017.9 0.0
18/08:00pm 21.0 22.8 15.5 71 3.3 CALM 0 0 0 0 1017.8 1017.7 0.0
18/07:30pm 21.2 23.0 15.5 70 3.4 CALM 0 6 0 3 1017.6 1017.5 0.0
18/07:00pm 21.5 22.0 15.6 69 3.5 ENE 7 9 4 5 1017.1 1017.0 0.0
18/06:30pm 21.9 22.6 15.5 67 3.8 E 6 7 3 4 1017.0 1016.9 0.0
18/06:00pm 22.3 22.4 15.4 65 4.1 NE 9 11 5 6 1016.7 1016.6 0.0
18/05:30pm 22.8 21.7 14.4 59 4.9 NE 13 17 7 9 1016.3 1016.2 0.0
18/05:00pm 23.5 21.7 13.4 53 5.9 NNE 15 20 8 11 1015.8 1015.7 0.0
18/04:30pm 24.0 21.0 12.0 47 6.8 NNE 19 22 10 12 1015.8 1015.7 0.0
18/04:00pm 24.5 21.3 11.8 45 7.2 NNE 20 30 11 16 1015.6 1015.5 0.0
18/03:30pm 24.3 19.5 10.2 41 7.8 NNE 26 33 14 18 1015.6 1015.5 0.0
18/03:00pm 24.7 19.8 9.8 39 8.2 NNE 26 33 14 18 1015.7 1015.6 0.0
18/02:30pm 25.2 19.2 8.7 35 8.9 NE 30 39 16 21 1016.0 1015.9 0.0
18/02:00pm 25.8 19.2 7.9 32 9.5 NE 32 43 17 23 1016.2 1016.1 0.0
18/01:30pm 26.0 18.4 5.6 27 10.5 NE 35 44 19 24 1016.4 1016.3 0.0
18/01:00pm 25.9 18.6 7.0 30 9.9 NE 35 44 19 24 1016.9 1016.8 0.0
18/12:30pm 25.6 18.7 7.2 31 9.7 ENE 33 44 18 24 1017.2 1017.1 0.0
18/12:00pm 25.7 20.0 6.8 30 9.9 ENE 26 35 14 19 1018.1 1018.0 0.0
18/11:30am 25.0 18.1 4.7 27 10.2 ENE 30 37 16 20 1018.3 1018.2 0.0
18/11:00am 24.4 17.6 5.2 29 9.7 ENE 30 37 16 20 1018.6 1018.5 0.0
18/10:30am 23.8 17.0 5.2 30 9.3 ENE 30 37 16 20 1018.8 1018.7 0.0
18/10:00am 23.6 16.3 4.5 29 9.4 E 32 43 17 23 1019.0 1018.9 0.0
18/09:30am 23.4 16.5 2.8 26 9.9 E 28 37 15 20 1019.2 1019.1 0.0
18/09:00am 22.5 15.5 2.1 26 9.6 E 28 35 15 19 1019.2 1019.1 0.0
18/08:30am 21.3 15.6 3.0 30 8.7 ESE 22 28 12 15 1018.9 1018.8 0.0

Other Formats:

Comma delimited format used in spreadsheet applications
http://www.bom.gov.au/fwo/IDW60801/IDW60801.94308.axf

JavaScript Object Notation format (JSON) in row-major order
http://www.bom.gov.au/fwo/IDW60801/IDW60801.94308.json